Main page
METAR-TAF:

METAR-TAF

Airports :

Perpignan–Rivesaltes Airport

Perpignan, France

latitude: 42-44N, longitude: 002-52E, elevation: 43 m

Current weather observation

The report was made 17 minutes ago, at 23:00 UTC
Wind 19 kt from the West/Northwest
Temperature 26°C
Humidity 51%
Pressure 1017 hPa
Visibility 10 km or more
no clouds below 1500 m and no cumulonimbus

METAR: LFMP 052300Z AUTO 29019KT CAVOK 26/15 Q1017 BECMG 32015G25KT

Time: 01:17 (23:17 UTC)

Forecast

The report was made 9 hours and 17 minutes ago, at 14:00 UTC
Forecast valid from 05 at 15 UTC to 06 at 15 UTC
Wind 15 kt from the Northwest with gusts up to 25 kt
Visibility 10 km or more
no clouds below 1500 m and no cumulonimbus
Becoming
from 06 at 09 UTC to 06 at 11 UTC
Wind 20 kt from the Northwest with gusts up to 35 kt

TAF: LFMP 051400Z 0515/0615 32015G25KT CAVOK BECMG 0609/0611 32020G35KT

Weather observations and forecasts of more than 4000 airports (METAR and TAF reports).

The available stations are represented by yellow and red dots on the map.

Hover mouse over dot to see the name of the station.

Then click to see weather observations and forecasts.

To change the map : click on the green buttons with a black cross to zoom in, on the green button with a dash to zoom out, or on the green arrows for adjacent maps.


METAR-TAF: